Time;durP1;ratioP1;P1;durP2;ratioP2;P2;SDS_P1;SDS_P2;PMS_P1;PMS_P2;Temp;Humidity;BMP_temperature;BMP_pressure;BME280_temperature;BME280_humidity;BME280_pressure;Samples;Min_cycle;Max_cycle;Signal;HPM_P1;HPM_P2
2022/04/09 00:00:18;;;;;;;5.00;2.67;;;;;;;-149.78;100.00;50358.00;5071831;28;20064;-70
2022/04/09 00:02:43;;;;;;;4.88;2.53;;;;;;;-149.78;100.00;50373.66;5071615;28;20511;-70
2022/04/09 00:05:11;;;;;;;3.67;2.00;;;;;;;-149.78;100.00;50385.38;5071804;28;20044;-70
2022/04/09 00:07:38;;;;;;;4.10;2.17;;;;;;;-149.78;100.00;50385.38;5072927;28;20036;-70
2022/04/09 00:10:05;;;;;;;6.75;2.35;;;;;;;-149.78;100.00;50393.22;5054913;28;20041;-70
2022/04/09 00:12:31;;;;;;;7.47;2.08;;;;;;;-149.78;100.00;50375.63;5071775;28;20071;-70
2022/04/09 00:14:57;;;;;;;5.85;2.50;;;;;;;-149.78;100.00;50379.53;5072670;28;20040;-70
2022/04/09 00:17:22;;;;;;;4.50;2.00;;;;;;;-149.78;100.00;50393.22;5072825;28;20610;-70
2022/04/09 00:19:49;;;;;;;3.55;2.03;;;;;;;-149.78;100.00;50363.88;5072855;28;20487;-70
2022/04/09 00:22:15;;;;;;;6.75;2.63;;;;;;;-149.78;100.00;50377.56;5072724;28;20055;-70
2022/04/09 00:24:41;;;;;;;4.72;2.28;;;;;;;-149.78;100.00;50387.34;5072327;28;20051;-70
2022/04/09 00:27:06;;;;;;;8.50;2.50;;;;;;;-149.78;100.00;50385.38;5072566;28;20032;-70
2022/04/09 00:29:32;;;;;;;9.00;2.40;;;;;;;-149.78;100.00;50385.38;5054799;28;20047;-70
2022/04/09 00:31:58;;;;;;;3.45;2.20;;;;;;;-149.78;100.00;50373.66;5072253;28;20052;-70
2022/04/09 00:34:23;;;;;;;5.82;1.90;;;;;;;-149.78;100.00;50350.19;5071412;28;20036;-70
2022/04/09 00:36:49;;;;;;;4.57;1.73;;;;;;;-149.78;100.00;50389.31;5072460;28;20146;-70
2022/04/09 00:39:15;;;;;;;3.47;1.65;;;;;;;-149.78;100.00;50395.16;5089968;28;20097;-70
2022/04/09 00:41:47;;;;;;;3.08;1.75;;;;;;;-149.78;100.00;50424.50;5092439;28;20027;-70
2022/04/09 00:44:20;;;;;;;5.57;1.65;;;;;;;-149.78;100.00;50354.09;5092810;28;20115;-70
2022/04/09 00:46:46;;;;;;;4.75;1.90;;;;;;;-149.78;100.00;50365.84;5092419;28;20035;-70
2022/04/09 00:49:13;;;;;;;3.97;1.85;;;;;;;-149.78;100.00;50373.66;5092424;28;20511;-70
2022/04/09 00:51:43;;;;;;;4.63;2.00;;;;;;;-149.78;100.00;50350.19;5092525;28;20043;-70
2022/04/09 00:54:13;;;;;;;3.90;1.88;;;;;;;-149.78;100.00;50385.38;5092515;28;20075;-70
2022/04/09 00:56:41;;;;;;;4.03;1.90;;;;;;;-149.78;100.00;50369.75;5092252;28;20081;-70
2022/04/09 00:59:11;;;;;;;6.05;1.63;;;;;;;-149.78;100.00;50379.53;5092184;28;20039;-70
2022/04/09 01:01:40;;;;;;;4.95;1.70;;;;;;;-149.78;100.00;50373.66;5092281;28;20440;-70
2022/04/09 01:04:11;;;;;;;2.65;1.70;;;;;;;-149.78;100.00;50367.78;5073756;28;20059;-70
2022/04/09 01:06:39;;;;;;;5.13;1.90;;;;;;;-149.78;100.00;50375.63;5070791;28;20032;-70
2022/04/09 01:09:08;;;;;;;3.88;1.83;;;;;;;-149.78;100.00;50401.03;5070758;28;20082;-70
2022/04/09 01:11:34;;;;;;;4.65;1.80;;;;;;;-149.78;100.00;50379.53;5059891;28;20394;-70
2022/04/09 01:14:01;;;;;;;6.65;2.30;;;;;;;-149.78;100.00;50373.66;5071874;28;20051;-69
2022/04/09 01:16:29;;;;;;;5.32;1.80;;;;;;;-149.78;100.00;50373.66;5072186;28;20387;-69
2022/04/09 01:19:01;;;;;;;3.35;1.80;;;;;;;-149.78;100.00;50383.44;5072073;28;20052;-69
2022/04/09 01:21:27;;;;;;;;;;;;;;;-149.78;100.00;50354.09;5071495;28;20037;-69
2022/04/09 01:23:53;;;;;;;4.47;1.90;;;;;;;-149.78;100.00;50354.09;5070777;28;20096;-69
2022/04/09 01:26:19;;;;;;;4.53;2.25;;;;;;;-149.78;100.00;50373.66;5070792;28;20036;-70
2022/04/09 01:28:47;;;;;;;5.95;2.40;;;;;;;-149.78;100.00;50350.19;5070603;28;20040;-69
2022/04/09 01:31:14;;;;;;;6.07;2.45;;;;;;;-149.78;100.00;50373.66;5071847;28;20075;-69
2022/04/09 01:33:40;;;;;;;6.53;2.20;;;;;;;-149.78;100.00;50381.47;5070396;28;20041;-69
2022/04/09 01:36:06;;;;;;;7.22;2.00;;;;;;;-149.78;100.00;50365.84;5071607;28;20033;-69
2022/04/09 01:38:34;;;;;;;7.10;2.20;;;;;;;-149.78;100.00;50369.75;5075642;28;20048;-69
2022/04/09 01:41:00;;;;;;;6.43;2.20;;;;;;;-149.78;100.00;50416.69;5075694;28;20453;-70
2022/04/09 01:43:26;;;;;;;3.50;1.63;;;;;;;-149.78;100.00;50393.22;5074550;28;20170;-69
2022/04/09 01:45:52;;;;;;;4.28;2.00;;;;;;;-149.78;100.00;50379.53;5087264;28;20119;-69
2022/04/09 01:48:18;;;;;;;5.13;1.92;;;;;;;-149.78;100.00;50377.56;5079901;28;20036;-69
2022/04/09 01:50:44;;;;;;;4.88;2.03;;;;;;;-149.78;100.00;50397.13;5074301;28;20086;-69
2022/04/09 01:53:10;;;;;;;5.60;1.80;;;;;;;-149.78;100.00;50381.47;5075487;28;20064;-69
2022/04/09 01:55:35;;;;;;;4.35;2.20;;;;;;;-149.78;100.00;50369.75;5074177;28;20029;-69
2022/04/09 01:58:01;;;;;;;7.72;2.50;;;;;;;-149.78;100.00;50381.47;5057784;28;20086;-69
2022/04/09 02:00:27;;;;;;;6.70;1.90;;;;;;;-149.78;100.00;50393.22;5075510;28;20039;-69
2022/04/09 02:02:53;;;;;;;6.53;1.83;;;;;;;-149.78;100.00;50399.09;5075043;28;20031;-69
2022/04/09 02:05:19;;;;;;;9.63;2.25;;;;;;;-149.78;100.00;50361.91;5057495;28;20036;-69
2022/04/09 02:07:45;;;;;;;4.07;1.90;;;;;;;-149.78;100.00;50358.00;5074037;28;20037;-69
2022/04/09 02:10:11;;;;;;;4.55;1.88;;;;;;;-149.78;100.00;50397.13;5075352;28;20115;-69
2022/04/09 02:12:37;;;;;;;5.18;2.00;;;;;;;-149.78;100.00;50391.25;5074178;28;20111;-70
2022/04/09 02:15:11;;;;;;;4.32;1.83;;;;;;;-149.78;100.00;50361.91;5057224;28;20039;-70
2022/04/09 02:17:38;;;;;;;5.97;1.60;;;;;;;-149.78;100.00;50395.16;5075138;28;20032;-69
2022/04/09 02:20:05;;;;;;;4.15;2.25;;;;;;;-149.78;100.00;50389.31;5086764;28;20044;-70
2022/04/09 02:22:38;;;;;;;5.35;2.05;;;;;;;-149.78;100.00;50389.31;5086904;28;20037;-69
2022/04/09 02:25:04;;;;;;;6.72;2.10;;;;;;;-149.78;100.00;50389.31;5074414;28;20496;-69
2022/04/09 02:27:30;;;;;;;6.70;1.80;;;;;;;-149.78;100.00;50412.78;5073532;28;20021;-69
2022/04/09 02:29:56;;;;;;;7.28;2.42;;;;;;;-149.78;100.00;50408.84;5074642;28;20055;-69
2022/04/09 02:32:22;;;;;;;3.90;1.90;;;;;;;-149.78;100.00;50436.25;5040074;28;20089;-70
2022/04/09 02:34:49;;;;;;;6.05;2.13;;;;;;;-149.78;100.00;50373.66;5073241;28;20041;-69
2022/04/09 02:37:15;;;;;;;3.25;1.92;;;;;;;-149.78;100.00;50414.72;5077913;28;20044;-70
2022/04/09 02:39:42;;;;;;;3.97;1.88;;;;;;;-149.78;100.00;50412.78;5073796;28;20097;-69
2022/04/09 02:42:08;;;;;;;5.90;2.10;;;;;;;-149.78;100.00;50365.84;5056234;28;20123;-69
2022/04/09 02:44:34;;;;;;;3.83;1.65;;;;;;;-149.78;100.00;50438.19;5074133;28;20174;-70
2022/04/09 02:46:59;;;;;;;4.45;1.85;;;;;;;-149.78;100.00;50381.47;5072511;28;20560;-70
2022/04/09 02:49:25;;;;;;;7.00;2.17;;;;;;;-149.78;100.00;50408.84;5088505;28;20028;-69
2022/04/09 02:51:50;;;;;;;7.80;2.03;;;;;;;-149.78;100.00;50389.31;5079786;28;20036;-69
2022/04/09 02:54:17;;;;;;;7.35;2.50;;;;;;;-149.78;100.00;50373.66;5079208;28;20116;-69
2022/04/09 02:56:49;;;;;;;3.90;2.38;;;;;;;-149.78;100.00;50369.75;5056160;28;20041;-69
2022/04/09 02:59:14;;;;;;;5.35;2.20;;;;;;;-149.78;100.00;50379.53;5073078;28;20033;-69
2022/04/09 03:01:41;;;;;;;5.22;2.50;;;;;;;-149.78;100.00;50356.06;5073998;28;20040;-69
2022/04/09 03:04:08;;;;;;;6.13;2.45;;;;;;;-149.78;100.00;50414.72;5072783;28;20040;-69
2022/04/09 03:06:35;;;;;;;4.50;2.25;;;;;;;-149.78;100.00;50359.97;5074135;28;20041;-71
2022/04/09 03:09:00;;;;;;;6.55;2.63;;;;;;;-149.78;100.00;50381.47;5074027;28;20029;-69
2022/04/09 03:11:26;;;;;;;11.98;2.58;;;;;;;-149.78;100.00;50385.38;5073963;28;20434;-69
2022/04/09 03:13:52;;;;;;;5.47;2.33;;;;;;;-149.78;100.00;50365.84;5073952;28;20078;-70
2022/04/09 03:16:18;;;;;;;5.88;2.05;;;;;;;-149.78;100.00;50383.44;5072652;28;20468;-70
2022/04/09 03:18:44;;;;;;;3.30;2.15;;;;;;;-149.78;100.00;50354.09;5055945;28;20039;-69
2022/04/09 03:21:09;;;;;;;5.60;2.45;;;;;;;-149.78;100.00;50399.09;5072681;28;20111;-69
2022/04/09 03:23:35;;;;;;;8.30;2.80;;;;;;;-149.78;100.00;50395.16;5073676;28;20037;-69
2022/04/09 03:26:01;;;;;;;4.75;2.33;;;;;;;-149.78;100.00;50408.84;5072447;28;20039;-70
2022/04/09 03:28:28;;;;;;;10.93;2.80;;;;;;;-149.78;100.00;50401.03;5073578;28;20032;-69
2022/04/09 03:30:53;;;;;;;7.10;2.75;;;;;;;-149.78;100.00;50393.22;5081815;28;20047;-69
2022/04/09 03:33:19;;;;;;;5.63;3.15;;;;;;;-149.78;100.00;50365.84;5076077;28;20020;-70
2022/04/09 03:35:47;;;;;;;5.25;2.75;;;;;;;-149.78;100.00;50377.56;5071909;28;20400;-69
2022/04/09 03:38:13;;;;;;;4.30;2.45;;;;;;;-149.78;100.00;50385.38;5059597;28;20056;-69
2022/04/09 03:40:39;;;;;;;10.20;3.30;;;;;;;-149.78;100.00;50404.94;5073207;28;20492;-69
2022/04/09 03:43:05;;;;;;;8.52;3.22;;;;;;;-149.78;100.00;50408.84;5089175;28;20038;-69
2022/04/09 03:45:31;;;;;;;7.40;3.15;;;;;;;-149.78;100.00;50383.44;5093122;28;20103;-69
2022/04/09 03:47:56;;;;;;;7.22;3.17;;;;;;;-149.78;100.00;50369.75;5092092;28;20043;-69
2022/04/09 03:50:22;;;;;;;6.93;3.17;;;;;;;-149.78;100.00;50397.13;5087522;28;20112;-70
2022/04/09 03:52:51;;;;;;;6.85;3.10;;;;;;;-149.78;100.00;50397.13;5071767;28;20036;-69
2022/04/09 03:55:16;;;;;;;9.70;3.40;;;;;;;-149.78;100.00;50395.16;5071917;28;20040;-69
2022/04/09 03:57:42;;;;;;;9.50;3.17;;;;;;;-149.78;100.00;50385.38;5038571;28;20115;-70
2022/04/09 04:00:09;;;;;;;6.03;2.63;;;;;;;-149.78;100.00;50403.00;5071093;28;20817;-69
2022/04/09 04:02:36;;;;;;;7.25;3.10;;;;;;;-149.78;100.00;50391.25;5072831;28;20060;-69
2022/04/09 04:05:03;;;;;;;7.90;3.60;;;;;;;-149.78;100.00;50389.31;5071497;28;20127;-70
2022/04/09 04:07:30;;;;;;;7.15;3.65;;;;;;;-149.78;100.00;50373.66;5087062;28;20028;-69
2022/04/09 04:09:55;;;;;;;6.68;3.38;;;;;;;-149.78;100.00;50365.84;5092996;28;20040;-69
2022/04/09 04:12:21;;;;;;;10.80;3.20;;;;;;;-149.78;100.00;50361.91;5093007;28;20081;-69
2022/04/09 04:14:47;;;;;;;11.57;3.42;;;;;;;-149.78;100.00;50404.94;5092882;28;20059;-69
2022/04/09 04:17:12;;;;;;;9.43;3.45;;;;;;;-149.78;100.00;50404.94;5074914;28;20028;-69
2022/04/09 04:19:39;;;;;;;9.88;3.28;;;;;;;-149.78;100.00;50397.13;5093018;28;20075;-69
2022/04/09 04:22:07;;;;;;;7.65;3.13;;;;;;;-149.78;100.00;50420.59;5092660;28;20415;-69
2022/04/09 04:24:37;;;;;;;12.90;3.40;;;;;;;-149.78;100.00;50373.66;5091602;28;20063;-69
2022/04/09 04:27:04;;;;;;;15.32;3.13;;;;;;;-149.78;100.00;50389.31;5091324;28;20540;-69
2022/04/09 04:29:31;;;;;;;10.05;3.33;;;;;;;-149.78;100.00;50410.81;5091426;28;20086;-69
2022/04/09 04:31:57;;;;;;;7.22;2.65;;;;;;;-149.78;100.00;50393.22;5092545;28;20470;-69
2022/04/09 04:34:23;;;;;;;7.38;2.60;;;;;;;-149.78;100.00;50397.13;5091583;28;20032;-69
2022/04/09 04:36:48;;;;;;;8.63;2.75;;;;;;;-149.78;100.00;50371.69;5091027;28;20036;-69
2022/04/09 04:39:15;;;;;;;5.18;2.30;;;;;;;-149.78;100.00;50401.03;5090828;28;20055;-69
2022/04/09 04:41:40;;;;;;;7.95;3.13;;;;;;;-149.78;100.00;50385.38;5084927;28;20492;-69
2022/04/09 04:44:06;;;;;;;8.55;2.30;;;;;;;-149.78;100.00;50383.44;5070153;28;20082;-69
2022/04/09 04:46:33;;;;;;;10.10;2.58;;;;;;;-149.78;100.00;50365.84;5053497;28;20123;-69
2022/04/09 04:48:59;;;;;;;9.60;2.80;;;;;;;-149.78;100.00;50406.91;5071356;28;20468;-69
2022/04/09 04:51:25;;;;;;;11.50;2.42;;;;;;;-149.78;100.00;50408.84;5071279;28;20093;-69
2022/04/09 04:53:50;;;;;;;7.95;2.65;;;;;;;-149.78;100.00;50422.56;5071317;28;20040;-69
2022/04/09 04:56:16;;;;;;;6.65;2.30;;;;;;;-149.78;100.00;50377.56;5070069;28;20044;-70
2022/04/09 04:58:42;;;;;;;11.50;2.75;;;;;;;-149.78;100.00;50428.41;5071297;28;20037;-69
2022/04/09 05:01:07;;;;;;;13.52;3.30;;;;;;;-149.78;100.00;50397.13;5054677;28;20071;-69
2022/04/09 05:03:35;;;;;;;12.15;3.05;;;;;;;-149.78;100.00;50401.03;5080563;28;20036;-70
2022/04/09 05:06:00;;;;;;;8.43;2.90;;;;;;;-149.78;100.00;50361.91;5081032;28;20032;-69
2022/04/09 05:08:26;;;;;;;5.53;2.50;;;;;;;-149.78;100.00;50385.38;5070171;28;20140;-69
2022/04/09 05:10:52;;;;;;;12.27;2.60;;;;;;;-149.78;100.00;50401.03;5069746;28;20131;-69
2022/04/09 05:13:18;;;;;;;10.55;3.17;;;;;;;-149.78;100.00;50377.56;5053336;28;20468;-69
2022/04/09 05:15:44;;;;;;;9.88;3.22;;;;;;;-149.78;100.00;50416.69;5070963;28;20043;-69
2022/04/09 05:18:09;;;;;;;9.00;2.65;;;;;;;-149.78;100.00;50391.25;5071008;28;20119;-69
2022/04/09 05:20:35;;;;;;;9.77;2.80;;;;;;;-149.78;100.00;50401.03;5069728;28;20441;-69
2022/04/09 05:23:02;;;;;;;7.10;2.78;;;;;;;-149.78;100.00;50424.50;5036387;28;20047;-69
2022/04/09 05:25:31;;;;;;;14.45;3.78;;;;;;;-149.78;100.00;50356.06;5071137;28;20047;-69
2022/04/09 05:28:02;;;;;;;9.32;2.92;;;;;;;-149.78;100.00;50408.84;5069709;28;20438;-69
2022/04/09 05:30:28;;;;;;;7.25;2.83;;;;;;;-149.78;100.00;50389.31;5070734;28;20511;-72
2022/04/09 05:32:54;;;;;;;11.25;3.28;;;;;;;-149.78;100.00;50389.31;5070672;28;20033;-69
2022/04/09 05:35:19;;;;;;;10.15;3.70;;;;;;;-149.78;100.00;50397.13;5070746;28;20037;-69
2022/04/09 05:37:46;;;;;;;8.85;3.42;;;;;;;-149.78;100.00;50397.13;5070503;28;20152;-69
2022/04/09 05:40:31;;;;;;;7.30;3.58;;;;;;;-149.78;100.00;50377.56;5089490;27;20730;-69
2022/04/09 05:42:57;;;;;;;8.15;3.97;;;;;;;-149.78;100.00;50367.78;5089496;28;20051;-68
2022/04/09 05:45:23;;;;;;;12.32;3.50;;;;;;;-149.78;100.00;50383.44;5089574;28;20087;-69
2022/04/09 05:47:48;;;;;;;9.52;3.83;;;;;;;-149.78;100.00;50377.56;5071448;28;20032;-68
2022/04/09 05:50:14;;;;;;;9.55;3.80;;;;;;;-149.78;100.00;50381.47;5089417;28;20024;-69
2022/04/09 05:52:41;;;;;;;10.40;3.50;;;;;;;-149.78;100.00;50399.09;5089386;28;20041;-69
2022/04/09 05:55:07;;;;;;;10.07;4.00;;;;;;;-149.78;100.00;50401.03;5089397;28;20032;-70
2022/04/09 05:57:33;;;;;;;10.25;3.50;;;;;;;-149.78;100.00;50369.75;5088065;28;20024;-70
2022/04/09 06:00:00;;;;;;;7.80;3.28;;;;;;;-149.78;100.00;50401.03;5071034;28;20139;-69
2022/04/09 06:02:26;;;;;;;9.02;3.25;;;;;;;-149.78;100.00;50381.47;5071300;28;20072;-70
2022/04/09 06:04:52;;;;;;;9.60;3.25;;;;;;;-149.78;100.00;50369.75;5070021;28;20056;-70
2022/04/09 06:07:17;;;;;;;12.43;3.25;;;;;;;-149.78;100.00;50381.47;5089807;28;20054;-70
2022/04/09 06:09:44;;;;;;;9.98;2.95;;;;;;;-149.78;100.00;50342.38;5079269;28;20024;-70
2022/04/09 06:12:11;;;;;;;10.00;2.97;;;;;;;-149.78;100.00;50385.38;5076797;28;20032;-70
2022/04/09 06:14:36;;;;;;;10.95;3.10;;;;;;;-149.78;100.00;50395.16;5078463;28;20116;-70
2022/04/09 06:17:02;;;;;;;12.50;2.85;;;;;;;-149.78;100.00;50408.84;5082080;28;20119;-70
2022/04/09 06:19:29;;;;;;;11.25;2.67;;;;;;;-149.78;100.00;50412.78;5084123;28;20028;-71
2022/04/09 06:21:56;;;;;;;7.70;2.70;;;;;;;-149.78;100.00;50408.84;5075744;28;20045;-70
2022/04/09 06:24:22;;;;;;;12.35;2.50;;;;;;;-149.78;100.00;50373.66;5069706;28;20070;-71
2022/04/09 06:26:48;;;;;;;8.25;2.55;;;;;;;-149.78;100.00;50358.00;5071257;28;20032;-71
2022/04/09 06:29:14;;;;;;;7.97;2.85;;;;;;;-149.78;100.00;50381.47;5073406;28;20029;-69
2022/04/09 06:31:40;;;;;;;11.40;2.53;;;;;;;-149.78;100.00;50404.94;5073005;28;20024;-70
2022/04/09 06:34:06;;;;;;;5.80;1.65;;;;;;;-149.78;100.00;50367.78;5059480;28;20052;-70
2022/04/09 06:36:32;;;;;;;7.82;2.17;;;;;;;-149.78;100.00;50404.94;5078028;28;20408;-70
2022/04/09 06:38:57;;;;;;;4.63;2.20;;;;;;;-149.78;100.00;50385.38;5068082;28;20068;-70
2022/04/09 06:41:24;;;;;;;7.00;3.55;;;;;;;-149.78;100.00;50356.06;5077124;28;20047;-70
2022/04/09 06:43:50;;;;;;;9.50;2.38;;;;;;;-149.78;100.00;50354.09;5073281;28;20060;-70
2022/04/09 06:46:16;;;;;;;6.10;2.47;;;;;;;-149.78;100.00;50385.38;5074474;28;20124;-70
2022/04/09 06:48:42;;;;;;;7.78;2.33;;;;;;;-149.78;100.00;50322.81;5075229;28;20536;-70
2022/04/09 06:51:08;;;;;;;7.55;2.22;;;;;;;-149.78;100.00;50404.94;5067126;28;20064;-70
2022/04/09 06:53:33;;;;;;;6.10;2.25;;;;;;;-149.78;100.00;50346.28;5060668;28;20102;-69
2022/04/09 06:55:59;;;;;;;10.50;2.30;;;;;;;-149.78;100.00;50361.91;5053361;28;20029;-70
2022/04/09 06:58:25;;;;;;;10.23;2.58;;;;;;;-149.78;100.00;50350.19;5062935;28;21885;-70
2022/04/09 07:00:51;;;;;;;8.18;1.90;;;;;;;-149.78;100.00;50311.06;5059309;28;20494;-70
2022/04/09 07:03:17;;;;;;;8.65;2.03;;;;;;;-149.78;100.00;50287.59;5043062;28;20041;-70
2022/04/09 07:05:43;;;;;;;6.68;2.28;;;;;;;-149.78;100.00;50275.88;5062893;28;20037;-70
2022/04/09 07:08:09;;;;;;;5.45;2.08;;;;;;;-149.78;100.00;50268.03;5064161;28;20024;-70
2022/04/09 07:10:39;;;;;;;11.27;1.73;;;;;;;-149.78;88.95;50221.13;5061220;28;20113;-71
2022/04/09 07:13:05;;;;;;;8.70;1.90;;;;;;;-149.78;66.61;50205.47;5059861;28;20033;-71
2022/04/09 07:15:32;;;;;;;4.75;1.77;;;;;;;-149.78;55.73;50185.91;5060533;28;20025;-69
2022/04/09 07:17:58;;;;;;;9.13;2.17;;;;;;;-149.78;53.47;50170.25;5042739;28;20086;-69
2022/04/09 07:20:24;;;;;;;7.65;1.88;;;;;;;-149.78;48.55;50180.03;5056595;28;20476;-69
2022/04/09 07:22:52;;;;;;;8.43;1.60;;;;;;;-149.78;46.48;50137.03;5057779;28;20059;-69
2022/04/09 07:25:18;;;;;;;3.85;1.60;;;;;;;-149.78;47.88;50142.88;5055590;28;20436;-70
2022/04/09 07:27:45;;;;;;;5.07;1.77;;;;;;;-149.78;44.32;50154.63;5061106;28;20032;-70
2022/04/09 07:30:16;;;;;;;7.88;2.00;;;;;;;-149.78;44.51;50142.88;5061462;28;20481;-69
2022/04/09 07:32:43;;;;;;;5.53;1.50;;;;;;;-149.78;44.37;50115.50;5051873;28;20032;-70
2022/04/09 07:35:10;;;;;;;6.28;1.70;;;;;;;-149.78;44.64;50135.06;5054773;28;20485;-70
2022/04/09 07:37:40;;;;;;;10.95;2.03;;;;;;;-149.78;46.37;50180.03;5062270;28;20488;-71
2022/04/09 07:40:08;;;;;;;8.07;2.00;;;;;;;-149.78;42.89;50099.88;5062831;28;20049;-68
2022/04/09 07:42:34;;;;;;;5.95;1.77;;;;;;;-149.78;44.18;50138.97;5056583;28;20449;-70
2022/04/09 07:44:59;;;;;;;6.30;2.05;;;;;;;-149.78;45.79;50182.00;5057070;28;20029;-68
2022/04/09 07:47:25;;;;;;;6.18;2.10;;;;;;;-149.78;47.12;50182.00;5067201;28;20038;-68
2022/04/09 07:49:51;;;;;;;4.63;2.10;;;;;;;-149.78;45.19;50168.31;5053053;28;20104;-69
2022/04/09 07:52:17;;;;;;;3.78;1.55;;;;;;;-149.78;43.94;50138.97;5057417;28;20040;-68
2022/04/09 07:54:43;;;;;;;10.40;1.88;;;;;;;-149.78;43.23;50148.75;5057314;28;20134;-69
2022/04/09 07:57:09;;;;;;;5.72;2.50;;;;;;;-149.78;41.86;50135.06;5061012;28;20626;-69
2022/04/09 08:02:08;;;;;;;7.88;2.00;;;;;;;-149.78;38.92;50119.41;5014002;28;20084;-69
2022/04/09 08:04:34;;;;;;;6.75;1.83;;;;;;;-149.78;39.50;50092.03;5018026;28;20033;-68
2022/04/09 08:07:00;;;;;;;5.65;1.92;;;;;;;-149.78;38.81;50107.69;5021184;28;20084;-69
2022/04/09 08:09:26;;;;;;;3.92;1.70;;;;;;;-149.78;38.95;50095.94;5016959;28;20175;-69
2022/04/09 08:11:53;;;;;;;5.80;1.80;;;;;;;-149.78;37.58;50088.13;5001497;28;20369;-69
2022/04/09 08:14:18;;;;;;;4.65;2.22;;;;;;;-149.78;39.81;50119.41;5016406;28;20030;-69
2022/04/09 08:16:44;;;;;;;7.60;1.90;;;;;;;-149.78;38.83;50099.88;5017779;28;20384;-68
2022/04/09 08:19:10;;;;;;;6.30;1.90;;;;;;;-149.78;37.80;50080.31;5019425;28;20404;-69
2022/04/09 08:21:35;;;;;;;9.75;2.28;;;;;;;-149.78;38.47;50078.34;5019839;28;20045;-69
2022/04/09 08:24:01;;;;;;;9.05;2.35;;;;;;;-149.78;39.45;50113.56;5021663;28;20579;-70
2022/04/09 08:26:27;;;;;;;5.20;1.85;;;;;;;-149.78;38.23;50086.19;5021642;28;20047;-68
2022/04/09 08:28:52;;;;;;;6.50;1.67;;;;;;;-149.78;37.11;50119.41;5000811;28;20392;-71
2022/04/09 08:31:18;;;;;;;6.25;1.75;;;;;;;-149.78;37.21;50092.03;4997393;28;20026;-69
2022/04/09 08:33:43;;;;;;;9.48;1.95;;;;;;;-149.78;37.28;50123.34;5012485;28;20034;-69
2022/04/09 08:36:09;;;;;;;6.90;1.67;;;;;;;-149.78;35.77;50064.66;5026465;28;20613;-69
2022/04/09 08:38:35;;;;;;;3.63;1.65;;;;;;;-149.78;35.07;50050.97;5025189;28;20021;-69
2022/04/09 08:41:03;;;;;;;4.82;1.52;;;;;;;-149.78;34.97;50088.13;5018633;28;20038;-69
2022/04/09 08:43:32;;;;;;;8.32;1.95;;;;;;;-149.78;35.37;50099.88;5032149;28;20040;-69
2022/04/09 08:46:02;;;;;;;6.90;2.40;;;;;;;-149.78;36.31;50072.50;5017737;28;20041;-69
2022/04/09 08:48:28;;;;;;;5.40;1.83;;;;;;;-149.78;34.56;50072.50;5024083;28;20393;-69
2022/04/09 08:50:54;;;;;;;6.07;1.60;;;;;;;-149.78;33.44;50072.50;5037632;28;20396;-68
2022/04/09 08:53:20;;;;;;;6.05;2.03;;;;;;;-149.78;34.01;50052.94;5014811;28;20037;-68
2022/04/09 08:55:48;;;;;;;6.72;1.45;;;;;;;-149.78;34.30;50076.41;5012175;28;20041;-69
2022/04/09 08:58:14;;;;;;;5.28;2.00;;;;;;;-149.78;36.21;50127.25;5004801;28;20469;-69
2022/04/09 09:00:42;;;;;;;5.28;1.80;;;;;;;-149.78;35.82;50115.50;5016807;28;20052;-67
2022/04/09 09:03:10;;;;;;;5.47;1.58;;;;;;;-149.78;36.18;50111.59;5020117;28;20510;-68
2022/04/09 09:05:39;;;;;;;4.15;1.40;;;;;;;-149.78;35.55;50094.00;5027123;28;20490;-70
2022/04/09 09:08:06;;;;;;;6.82;1.50;;;;;;;-149.78;34.50;50105.72;5019137;28;20036;-69
2022/04/09 09:10:31;;;;;;;5.10;1.50;;;;;;;-149.78;35.58;50123.34;5032891;28;20041;-68
2022/04/09 09:12:58;;;;;;;6.78;2.17;;;;;;;-149.78;36.67;50068.56;5032466;28;20036;-68
2022/04/09 09:15:25;;;;;;;5.78;1.90;;;;;;;-149.78;36.81;50144.84;5048912;28;20040;-70
2022/04/09 09:17:55;;;;;;;4.05;1.67;;;;;;;-149.78;34.93;50080.31;5038562;28;20036;-72
2022/04/09 09:20:21;;;;;;;3.35;1.48;;;;;;;-149.78;35.43;50090.09;5015854;28;20045;-68
2022/04/09 09:22:49;;;;;;;5.43;1.70;;;;;;;-149.78;36.25;50150.72;5038649;28;20029;-68
2022/04/09 09:25:14;;;;;;;4.80;1.40;;;;;;;-149.78;35.45;50099.88;5015541;28;20033;-68
2022/04/09 09:27:40;;;;;;;3.45;1.50;;;;;;;-149.78;35.20;50084.22;5032173;28;20032;-68
2022/04/09 09:30:09;;;;;;;9.48;2.00;;;;;;;-149.78;36.38;50088.13;5014251;28;20472;-68
2022/04/09 09:32:35;;;;;;;3.90;1.60;;;;;;;-149.78;35.73;50064.66;5051227;28;20044;-68
2022/04/09 09:35:01;;;;;;;6.68;2.00;;;;;;;-149.78;36.07;50111.59;5047969;28;20029;-68
2022/04/09 09:37:30;;;;;;;4.10;1.58;;;;;;;-149.78;34.45;50084.22;5038855;28;20036;-68
2022/04/09 09:39:56;;;;;;;3.97;1.70;;;;;;;-149.78;35.09;50041.19;5042837;28;20029;-68
2022/04/09 09:42:24;;;;;;;4.68;1.77;;;;;;;-149.78;34.36;50049.03;5051591;28;20041;-68
2022/04/09 09:44:51;;;;;;;6.68;1.67;;;;;;;-149.78;33.83;50049.03;5032169;28;20030;-68
2022/04/09 09:47:17;;;;;;;3.60;1.50;;;;;;;-149.78;33.24;50054.88;5047281;28;20033;-68
2022/04/09 09:49:56;;;;;;;5.43;1.40;;;;;;;-149.78;32.50;50099.88;5021016;28;20036;-68
2022/04/09 09:52:29;;;;;;;4.43;1.33;;;;;;;-149.78;30.93;50025.56;5042173;28;20172;-69
2022/04/09 09:55:05;;;;;;;5.50;1.30;;;;;;;-149.78;31.30;50043.16;5016328;28;20034;-69
2022/04/09 09:57:32;;;;;;;8.65;1.83;;;;;;;-149.78;31.75;50074.44;5031628;28;20041;-69
2022/04/09 10:00:01;;;;;;;7.18;1.40;;;;;;;-149.78;31.47;50023.59;5038971;28;20063;-68
2022/04/09 10:02:27;;;;;;;4.57;1.40;;;;;;;-149.78;30.65;50064.66;5046441;28;20034;-69
2022/04/09 10:04:53;;;;;;;3.28;1.25;;;;;;;-149.78;31.57;50094.00;5031385;28;20038;-70
2022/04/09 10:07:20;;;;;;;2.30;1.20;;;;;;;-149.78;30.87;50049.03;5031193;28;20025;-69
2022/04/09 10:09:50;;;;;;;2.90;1.00;;;;;;;-149.78;31.00;50049.03;5018569;28;20030;-68
2022/04/09 10:12:20;;;;;;;5.72;1.50;;;;;;;-149.78;30.09;50060.75;5013633;28;20033;-69
2022/04/09 10:14:58;;;;;;;2.50;1.00;;;;;;;-149.78;29.75;50054.88;5014995;28;20045;-68
2022/04/09 10:17:24;;;;;;;4.32;1.05;;;;;;;-149.78;29.58;50019.69;5038113;28;20040;-70
2022/04/09 10:19:56;;;;;;;5.07;1.08;;;;;;;-149.78;30.83;50041.19;5024873;28;20026;-69
2022/04/09 10:22:24;;;;;;;4.30;0.95;;;;;;;-149.78;30.80;50049.03;5041439;28;20124;-69
2022/04/09 10:24:51;;;;;;;3.40;1.15;;;;;;;-149.78;30.51;50025.56;5050687;28;20094;-69
2022/04/09 10:27:37;;;;;;;6.03;1.13;;;;;;;-149.78;31.48;50095.94;5054068;28;20033;-69
2022/04/09 10:30:17;;;;;;;4.85;1.20;;;;;;;-149.78;30.85;50039.25;5036791;28;20044;-70
2022/04/09 10:32:44;;;;;;;4.20;1.35;;;;;;;-149.78;30.46;50045.09;5054886;28;20064;-69
2022/04/09 10:35:27;;;;;;;5.10;1.40;;;;;;;-149.78;30.70;50029.47;5053309;28;20029;-69
2022/04/09 10:38:14;;;;;;;3.92;0.85;;;;;;;-149.78;31.53;50072.50;5048312;28;20116;-70
2022/04/09 10:40:42;;;;;;;4.90;1.27;;;;;;;-149.78;32.01;50045.09;5055003;28;20029;-71
2022/04/09 10:43:21;;;;;;;6.97;1.08;;;;;;;-149.78;31.82;50076.41;5050337;28;20029;-70
2022/04/09 10:46:02;;;;;;;4.25;1.30;;;;;;;-149.78;31.29;50080.31;5028595;28;20040;-71
2022/04/09 10:48:29;;;;;;;5.32;0.90;;;;;;;-149.78;29.98;50080.31;5050008;28;20036;-70
2022/04/09 10:50:58;;;;;;;2.45;0.95;;;;;;;-149.78;31.00;50041.19;5029026;28;20083;-71
2022/04/09 10:53:30;;;;;;;3.50;1.08;;;;;;;-149.78;31.77;50080.31;5044068;28;20044;-69
2022/04/09 10:56:20;;;;;;;2.90;1.10;;;;;;;-149.78;32.06;50064.66;5048771;28;20036;-69
2022/04/09 10:59:08;;;;;;;3.35;1.00;;;;;;;-149.78;33.29;50070.53;5042446;28;20028;-68
2022/04/09 11:01:46;;;;;;;6.40;1.52;;;;;;;-149.78;34.36;50101.81;5054301;28;20049;-69
2022/04/09 11:04:35;;;;;;;4.95;1.15;;;;;;;-149.78;34.53;50131.16;5042496;28;20035;-68
2022/04/09 11:07:11;;;;;;;4.45;1.00;;;;;;;-149.78;34.19;50099.88;5035594;28;20033;-69
2022/04/09 11:09:47;;;;;;;4.07;1.00;;;;;;;-149.78;35.43;50119.41;5042311;28;20115;-69
2022/04/09 11:12:14;;;;;;;3.13;1.10;;;;;;;-149.78;34.74;50182.00;5030097;28;20091;-69
2022/04/09 11:14:47;;;;;;;2.78;0.98;;;;;;;-149.78;33.62;50115.50;5053108;28;20025;-69